Time;durP1;ratioP1;P1;durP2;ratioP2;P2;SDS_P1;SDS_P2;PMS_P1;PMS_P2;Temp;Humidity;BMP_temperature;BMP_pressure;BME280_temperature;BME280_humidity;BME280_pressure;Samples;Min_cycle;Max_cycle;Signal;HPM_P1;HPM_P2
2023/04/19 00:02:17;;;;;;;;;;;;;;;20.26;58.91;102560.31;5056378;28;19917;-52
2023/04/19 00:04:43;;;;;;;;;;;;;;;20.18;58.55;102561.41;5056710;28;19917;-48
2023/04/19 00:07:09;;;;;;;;;;;;;;;20.15;58.65;102559.13;5056702;28;19925;-50
2023/04/19 00:09:35;;;;;;;;;;;;;;;20.22;58.82;102568.09;5056571;28;19921;-50
2023/04/19 00:12:01;;;;;;;;;;;;;;;19.80;59.27;102563.03;5056218;28;19928;-53
2023/04/19 00:14:26;;;;;;;;;;;;;;;20.15;58.42;102559.97;5056460;28;19992;-55
2023/04/19 00:16:51;;;;;;;;;;;;;;;20.19;58.44;102563.09;5056556;28;19917;-55
2023/04/19 00:19:16;;;;;;;;;;;;;;;20.26;58.74;102558.47;5056326;28;19940;-50
2023/04/19 00:21:42;;;;;;;;;;;;;;;20.07;59.25;102560.25;5056543;28;19917;-50
2023/04/19 00:24:07;;;;;;;;;;;;;;;20.07;59.28;102552.09;5055964;28;19917;-51
2023/04/19 00:26:33;;;;;;;;;;;;;;;19.98;60.15;102554.25;5056411;28;19917;-53
2023/04/19 00:28:58;;;;;;;;;;;;;;;19.98;60.46;102547.97;5056215;28;19918;-52
2023/04/19 00:31:24;;;;;;;;;;;;;;;19.69;61.33;102550.16;5055252;28;19948;-52
2023/04/19 00:33:49;;;;;;;;;;;;;;;19.55;61.83;102550.19;5038450;28;19928;-50
2023/04/19 00:36:15;;;;;;;;;;;;;;;20.21;60.84;102547.41;5038743;28;19939;-48
2023/04/19 00:38:40;;;;;;;;;;;;;;;20.07;61.27;102538.53;5038792;28;19928;-51
2023/04/19 00:41:08;;;;;;;;;;;;;;;19.94;61.42;102536.69;5056138;28;19925;-48
2023/04/19 00:43:34;;;;;;;;;;;;;;;19.90;61.69;102536.28;5038441;28;19921;-54
2023/04/19 00:46:00;;;;;;;;;;;;;;;20.00;61.49;102537.72;5038587;28;20025;-53
2023/04/19 00:48:25;;;;;;;;;;;;;;;20.45;60.93;102536.81;5055810;28;19978;-55
2023/04/19 00:50:51;;;;;;;;;;;;;;;20.37;60.73;102537.06;5038570;28;19917;-51
2023/04/19 00:53:16;;;;;;;;;;;;;;;20.60;60.67;102531.03;5062002;28;19960;-54
2023/04/19 00:55:43;;;;;;;;;;;;;;;20.19;61.29;102528.63;5073408;28;19917;-50
2023/04/19 00:58:09;;;;;;;;;;;;;;;20.43;61.69;102528.88;5086870;28;19916;-53
2023/04/19 01:00:35;;;;;;;;;;;;;;;19.90;63.08;102525.41;5075661;28;19916;-55
2023/04/19 01:03:01;;;;;;;;;;;;;;;19.96;63.21;102528.34;5075833;28;19969;-54
2023/04/19 01:05:26;;;;;;;;;;;;;;;19.71;63.74;102524.47;5073367;28;19916;-52
2023/04/19 01:07:51;;;;;;;;;;;;;;;19.99;62.85;102533.34;5074620;28;19912;-55
2023/04/19 01:10:17;;;;;;;;;;;;;;;20.06;62.33;102529.53;5074657;28;19921;-54
2023/04/19 01:12:43;;;;;;;;;;;;;;;20.03;62.36;102524.53;5075421;28;19924;-54
2023/04/19 01:15:09;;;;;;;;;;;;;;;20.36;61.47;102528.09;5072291;28;19944;-55
2023/04/19 01:17:35;;;;;;;;;;;;;;;20.19;61.46;102523.19;5075267;28;19920;-55
2023/04/19 01:20:06;;;;;;;;;;;;;;;20.10;62.08;102524.50;5074570;28;19939;-52
2023/04/19 01:22:33;;;;;;;;;;;;;;;20.07;62.07;102524.94;5071984;28;19952;-54
2023/04/19 01:24:58;;;;;;;;;;;;;;;20.04;62.22;102526.22;5074364;28;19927;-54
2023/04/19 01:27:24;;;;;;;;;;;;;;;19.85;62.44;102522.53;5074320;28;19923;-55
2023/04/19 01:29:49;;;;;;;;;;;;;;;20.12;61.37;102532.41;5074086;28;19952;-54
2023/04/19 01:32:16;;;;;;;;;;;;;;;20.37;60.82;102523.47;5074019;28;19917;-55
2023/04/19 01:34:41;;;;;;;;;;;;;;;20.08;61.53;102523.06;5073957;28;19925;-52
2023/04/19 01:37:07;;;;;;;;;;;;;;;19.97;62.15;102520.00;5074811;28;19925;-53
2023/04/19 01:39:32;;;;;;;;;;;;;;;20.13;61.63;102524.06;5075021;28;19952;-54
2023/04/19 01:41:59;;;;;;;;;;;;;;;20.20;61.38;102527.56;5073951;28;19917;-55
2023/04/19 01:44:25;;;;;;;;;;;;;;;20.11;61.85;102519.91;5073683;28;19921;-53
2023/04/19 01:46:51;;;;;;;;;;;;;;;20.24;61.08;102521.69;5073332;28;19921;-51
2023/04/19 01:49:17;;;;;;;;;;;;;;;19.84;62.57;102523.59;5073756;28;20422;-51
2023/04/19 01:51:42;;;;;;;;;;;;;;;20.03;62.22;102524.53;5073130;28;19976;-54
2023/04/19 01:54:08;;;;;;;;;;;;;;;19.82;62.51;102520.22;5054711;28;19921;-54
2023/04/19 01:56:33;;;;;;;;;;;;;;;20.24;61.68;102521.69;5036997;28;20118;-52
2023/04/19 01:59:00;;;;;;;;;;;;;;;20.15;61.35;102516.53;5054520;28;19918;-53
2023/04/19 02:01:25;;;;;;;;;;;;;;;19.83;62.93;102523.78;5037221;28;19917;-50
2023/04/19 02:03:51;;;;;;;;;;;;;;;19.90;62.60;102525.41;5037112;28;19943;-54
2023/04/19 02:06:17;;;;;;;;;;;;;;;20.01;62.72;102520.38;5036879;28;19928;-52
2023/04/19 02:08:42;;;;;;;;;;;;;;;19.88;62.45;102522.09;5054479;28;19917;-55
2023/04/19 02:11:09;;;;;;;;;;;;;;;19.78;63.10;102525.28;5036919;28;19925;-52
2023/04/19 02:13:34;;;;;;;;;;;;;;;19.87;63.21;102520.44;5054416;28;19936;-51
2023/04/19 02:16:02;;;;;;;;;;;;;;;19.66;63.50;102518.84;5036800;28;19917;-52
2023/04/19 02:18:28;;;;;;;;;;;;;;;19.92;63.04;102517.91;5037045;28;19960;-52
2023/04/19 02:20:55;;;;;;;;;;;;;;;20.28;62.03;102521.03;5036823;28;19916;-54
2023/04/19 02:23:20;;;;;;;;;;;;;;;20.26;62.07;102522.28;5036362;28;19928;-50
2023/04/19 02:25:45;;;;;;;;;;;;;;;20.12;62.57;102516.97;5036523;28;19996;-51
2023/04/19 02:28:13;;;;;;;;;;;;;;;20.20;61.64;102519.41;5036761;28;19924;-55
2023/04/19 02:30:38;;;;;;;;;;;;;;;19.91;63.61;102520.84;5036860;28;19980;-55
2023/04/19 02:33:03;;;;;;;;;;;;;;;19.71;63.54;102515.50;5053791;28;19948;-52
2023/04/19 02:35:29;;;;;;;;;;;;;;;19.95;62.67;102511.19;5054104;28;19913;-56
2023/04/19 02:37:57;;;;;;;;;;;;;;;19.91;63.12;102509.97;5052850;28;19923;-56
2023/04/19 02:40:25;;;;;;;;;;;;;;;19.40;64.82;102514.38;5053793;28;19913;-50
2023/04/19 02:42:51;;;;;;;;;;;;;;;19.66;64.27;102510.72;5036411;28;19923;-53
2023/04/19 02:45:16;;;;;;;;;;;;;;;19.27;64.72;102520.69;5053853;28;19948;-53
2023/04/19 02:47:41;;;;;;;;;;;;;;;19.51;64.62;102515.59;5037092;28;19917;-55
2023/04/19 02:50:07;;;;;;;;;;;;;;;19.82;63.51;102522.13;5036445;28;19984;-54
2023/04/19 02:52:38;;;;;;;;;;;;;;;19.54;64.21;102521.41;5047024;28;19921;-51
2023/04/19 02:55:04;;;;;;;;;;;;;;;19.74;63.52;102520.50;5072735;28;19943;-55
2023/04/19 02:57:30;;;;;;;;;;;;;;;19.51;63.95;102516.41;5072727;28;19927;-55
2023/04/19 02:59:55;;;;;;;;;;;;;;;19.52;63.89;102522.69;5072806;28;19917;-53
2023/04/19 03:02:20;;;;;;;;;;;;;;;19.80;62.99;102522.31;5072628;28;19921;-55
2023/04/19 03:04:46;;;;;;;;;;;;;;;19.92;62.64;102527.94;5073472;28;19917;-55
2023/04/19 03:07:13;;;;;;;;;;;;;;;19.94;62.58;102525.00;5081934;28;19917;-52
2023/04/19 03:09:39;;;;;;;;;;;;;;;19.78;62.63;102527.16;5072597;28;19923;-52
2023/04/19 03:12:06;;;;;;;;;;;;;;;20.11;61.79;102519.91;5072568;28;19920;-50
2023/04/19 03:14:32;;;;;;;;;;;;;;;20.00;61.85;102518.72;5071910;28;19920;-53
2023/04/19 03:16:59;;;;;;;;;;;;;;;20.00;61.89;102524.13;5088763;28;19917;-51
2023/04/19 03:19:24;;;;;;;;;;;;;;;19.99;61.62;102522.47;5072420;28;19916;-51
2023/04/19 03:21:50;;;;;;;;;;;;;;;20.11;61.52;102515.31;5073306;28;19923;-55
2023/04/19 03:24:27;;;;;;;;;;;;;;;20.01;61.41;102514.94;5072408;28;19916;-51
2023/04/19 03:26:53;;;;;;;;;;;;;;;19.78;62.00;102516.28;5072365;28;19987;-54
2023/04/19 03:29:23;;;;;;;;;;;;;;;19.53;62.39;102510.78;5072532;28;19925;-50
2023/04/19 03:32:02;;;;;;;;;;;;;;;19.52;62.51;102517.25;5082648;28;19917;-50
2023/04/19 03:34:28;;;;;;;;;;;;;;;19.53;62.87;102508.06;5072273;28;19931;-53
2023/04/19 03:36:54;;;;;;;;;;;;;;;19.60;62.50;102509.69;5073106;28;19917;-51
2023/04/19 03:39:19;;;;;;;;;;;;;;;19.41;62.84;102505.19;5072453;28;19932;-53
2023/04/19 03:41:49;;;;;;;;;;;;;;;19.73;62.21;102510.69;5070058;28;19948;-54
2023/04/19 03:44:33;;;;;;;;;;;;;;;19.57;62.61;102512.00;5070053;28;19963;-50
2023/04/19 03:47:01;;;;;;;;;;;;;;;19.18;63.44;102509.22;5070551;28;19916;-51
2023/04/19 03:49:31;;;;;;;;;;;;;;;19.74;61.80;102506.91;5072236;28;19925;-53
2023/04/19 03:52:03;;;;;;;;;;;;;;;19.77;61.93;102509.19;5068829;28;19921;-53
2023/04/19 03:54:28;;;;;;;;;;;;;;;19.74;62.24;102507.75;5053072;28;19936;-55
2023/04/19 03:56:53;;;;;;;;;;;;;;;19.91;61.85;102510.81;5035703;28;19992;-50
2023/04/19 03:59:19;;;;;;;;;;;;;;;19.83;61.66;102513.75;5035432;28;19967;-51
2023/04/19 04:01:45;;;;;;;;;;;;;;;19.88;61.50;102516.66;5035897;28;19925;-50
2023/04/19 04:04:11;;;;;;;;;;;;;;;19.93;61.65;102516.03;5035531;28;19925;-54
2023/04/19 04:06:38;;;;;;;;;;;;;;;20.09;61.11;102517.41;5038686;28;19927;-54
2023/04/19 04:09:03;;;;;;;;;;;;;;;20.12;60.88;102516.13;5039104;28;19925;-53
2023/04/19 04:11:29;;;;;;;;;;;;;;;20.13;61.24;102517.78;5039158;28;19921;-51
2023/04/19 04:13:55;;;;;;;;;;;;;;;20.11;60.88;102523.47;5039257;28;19921;-55
2023/04/19 04:16:25;;;;;;;;;;;;;;;20.02;60.95;102516.59;5037799;28;19940;-53
2023/04/19 04:18:52;;;;;;;;;;;;;;;20.08;61.05;102515.75;5038837;28;19964;-55
2023/04/19 04:21:20;;;;;;;;;;;;;;;20.10;60.57;102516.34;5039022;28;19917;-53
2023/04/19 04:23:48;;;;;;;;;;;;;;;19.65;61.58;102519.09;5038943;28;19921;-52
2023/04/19 04:26:24;;;;;;;;;;;;;;;19.73;60.84;102513.41;5023265;28;20000;-53
2023/04/19 04:29:01;;;;;;;;;;;;;;;19.81;60.97;102510.41;5038786;28;19952;-51
2023/04/19 04:31:28;;;;;;;;;;;;;;;19.62;61.40;102517.63;5039071;28;19917;-52
2023/04/19 04:33:54;;;;;;;;;;;;;;;19.59;61.38;102516.16;5038865;28;19925;-54
2023/04/19 04:36:20;;;;;;;;;;;;;;;19.43;61.89;102511.25;5056020;28;19917;-55
2023/04/19 04:38:47;;;;;;;;;;;;;;;19.20;62.46;102509.84;5038757;28;19917;-52
2023/04/19 04:41:13;;;;;;;;;;;;;;;19.03;62.40;102499.44;5038710;28;19917;-51
2023/04/19 04:43:38;;;;;;;;;;;;;;;18.90;63.10;102505.69;5056026;28;19939;-51
2023/04/19 04:46:04;;;;;;;;;;;;;;;18.98;62.72;102504.69;5055809;28;19960;-51
2023/04/19 04:48:36;;;;;;;;;;;;;;;18.77;62.95;102509.25;5038587;28;19917;-51
2023/04/19 04:51:03;;;;;;;;;;;;;;;18.99;61.98;102511.78;5037188;28;19921;-52
2023/04/19 04:53:30;;;;;;;;;;;;;;;18.99;61.71;102506.34;5065232;28;19974;-52
2023/04/19 04:55:57;;;;;;;;;;;;;;;19.04;61.09;102500.31;5056883;28;19917;-52
2023/04/19 04:58:23;;;;;;;;;;;;;;;18.55;62.18;102505.09;5074777;28;19943;-51
2023/04/19 05:00:58;;;;;;;;;;;;;;;18.62;61.77;102504.06;5074731;28;19917;-53
2023/04/19 05:03:25;;;;;;;;;;;;;;;18.64;61.54;102503.84;5074930;28;19923;-52
2023/04/19 05:05:55;;;;;;;;;;;;;;;18.29;62.62;102509.47;5072645;28;19935;-53
2023/04/19 05:08:22;;;;;;;;;;;;;;;18.44;61.95;102512.78;5074554;28;19943;-54
2023/04/19 05:10:48;;;;;;;;;;;;;;;18.23;62.37;102515.72;5074809;28;19916;-55
2023/04/19 05:13:13;;;;;;;;;;;;;;;18.38;62.08;102512.81;5075302;28;19916;-51
2023/04/19 05:15:39;;;;;;;;;;;;;;;18.41;61.57;102518.63;5074215;28;19976;-51
2023/04/19 05:18:04;;;;;;;;;;;;;;;18.61;60.36;102510.53;5073800;28;19913;-53
2023/04/19 05:20:30;;;;;;;;;;;;;;;18.35;61.06;102519.47;5073842;28;19925;-53
2023/04/19 05:23:07;;;;;;;;;;;;;;;18.60;60.70;102510.72;5072996;28;19951;-50
2023/04/19 05:25:33;;;;;;;;;;;;;;;18.39;61.09;102518.00;5072723;28;19920;-49
2023/04/19 05:27:59;;;;;;;;;;;;;;;18.26;61.10;102518.81;5075292;28;19985;-52
2023/04/19 05:30:28;;;;;;;;;;;;;;;18.15;61.20;102520.25;5087299;28;19974;-55
2023/04/19 05:32:53;;;;;;;;;;;;;;;18.24;61.14;102523.63;5083616;28;19916;-55
2023/04/19 05:35:19;;;;;;;;;;;;;;;18.59;60.27;102526.16;5071370;28;19936;-53
2023/04/19 05:37:44;;;;;;;;;;;;;;;18.03;61.67;102530.03;5073641;28;19920;-53
2023/04/19 05:40:12;;;;;;;;;;;;;;;18.12;61.40;102527.97;5088581;28;19936;-54
2023/04/19 05:42:37;;;;;;;;;;;;;;;18.16;60.89;102538.19;5074811;28;19925;-53
2023/04/19 05:45:03;;;;;;;;;;;;;;;18.12;60.75;102530.69;5073544;28;20015;-53
2023/04/19 05:47:28;;;;;;;;;;;;;;;18.18;60.24;102527.97;5089493;28;19921;-55
2023/04/19 05:50:19;;;;;;;;;;;;;;;18.00;60.44;102528.53;5068815;28;19916;-52
2023/04/19 05:52:59;;;;;;;;;;;;;;;18.04;60.20;102531.72;5069500;28;19921;-56
2023/04/19 05:55:24;;;;;;;;;;;;;;;18.08;60.37;102530.25;5079790;28;19935;-54
2023/04/19 05:57:50;;;;;;;;;;;;;;;18.24;59.61;102520.91;5073379;28;19931;-53
2023/04/19 06:00:15;;;;;;;;;;;;;;;18.01;60.38;102530.22;5056507;28;19921;-50
2023/04/19 06:02:50;;;;;;;;;;;;;;;18.24;59.72;102529.03;5073012;28;19917;-53
2023/04/19 06:05:16;;;;;;;;;;;;;;;18.47;59.04;102525.94;5073476;28;20407;-54
2023/04/19 06:07:41;;;;;;;;;;;;;;;18.47;57.93;102523.25;5083883;28;19917;-53
2023/04/19 06:10:07;;;;;;;;;;;;;;;18.48;57.97;102526.75;5074013;28;19924;-52
2023/04/19 06:12:32;;;;;;;;;;;;;;;18.66;57.39;102518.00;5073231;28;20551;-54
2023/04/19 06:14:58;;;;;;;;;;;;;;;18.42;56.97;102525.72;5073359;28;20000;-51
2023/04/19 06:17:24;;;;;;;;;;;;;;;18.36;57.66;102528.44;5072636;28;19921;-49
2023/04/19 06:19:50;;;;;;;;;;;;;;;18.78;56.18;102524.47;5074222;28;19980;-53
2023/04/19 06:22:15;;;;;;;;;;;;;;;18.49;56.29;102526.56;5074065;28;19939;-51
2023/04/19 06:24:40;;;;;;;;;;;;;;;18.42;55.52;102525.72;5074063;28;19923;-51
2023/04/19 06:27:06;;;;;;;;;;;;;;;18.56;54.38;102517.59;5073470;28;19921;-51
2023/04/19 06:29:31;;;;;;;;;;;;;;;18.13;56.19;102527.75;5073262;28;19916;-54
2023/04/19 06:31:57;;;;;;;;;;;;;;;18.65;54.86;102524.47;5073710;28;19917;-52
2023/04/19 06:34:22;;;;;;;;;;;;;;;19.00;53.20;102526.13;5073978;28;19917;-52
2023/04/19 06:36:48;;;;;;;;;;;;;;;18.63;53.30;102526.56;5073742;28;19948;-54
2023/04/19 06:39:14;;;;;;;;;;;;;;;18.85;53.30;102537.19;5073524;28;19916;-54
2023/04/19 06:41:39;;;;;;;;;;;;;;;19.08;52.09;102531.34;5072341;28;19925;-49
2023/04/19 06:44:04;;;;;;;;;;;;;;;18.75;52.34;102530.31;5082893;28;19925;-50
2023/04/19 06:46:30;;;;;;;;;;;;;;;18.89;51.16;102531.13;5073293;28;19916;-49
2023/04/19 06:48:56;;;;;;;;;;;;;;;18.87;52.37;102530.53;5073692;28;19976;-51
2023/04/19 06:51:21;;;;;;;;;;;;;;;18.85;50.94;102529.06;5073078;28;19924;-51
2023/04/19 06:53:46;;;;;;;;;;;;;;;18.98;50.78;102544.47;5073422;28;19920;-51
2023/04/19 06:56:12;;;;;;;;;;;;;;;18.96;50.49;102536.56;5073135;28;19952;-56
2023/04/19 06:58:38;;;;;;;;;;;;;;;19.15;51.07;102534.06;5071398;28;19917;-52
2023/04/19 07:01:03;;;;;;;;;;;;;;;19.22;49.56;102539.44;5072876;28;19984;-52
2023/04/19 07:03:28;;;;;;;;;;;;;;;19.01;48.74;102544.06;5073342;28;19939;-51
2023/04/19 07:05:57;;;;;;;;;;;;;;;19.19;49.27;102540.72;5073168;28;19999;-52
2023/04/19 07:08:23;;;;;;;;;;;;;;;19.12;49.92;102538.03;5073227;28;20032;-50
2023/04/19 07:10:48;;;;;;;;;;;;;;;19.37;49.29;102531.06;5073032;28;19916;-54
2023/04/19 07:13:14;;;;;;;;;;;;;;;19.35;48.08;102540.25;5073058;28;19912;-51
2023/04/19 07:15:40;;;;;;;;;;;;;;;19.42;47.03;102534.00;5073031;28;19916;-51
2023/04/19 07:18:05;;;;;;;;;;;;;;;19.68;47.58;102540.34;5073284;28;19940;-55
2023/04/19 07:20:31;;;;;;;;;;;;;;;19.72;47.27;102545.16;5072951;28;19955;-53
2023/04/19 07:22:57;;;;;;;;;;;;;;;19.78;46.51;102538.00;5073122;28;19939;-52
2023/04/19 07:25:22;;;;;;;;;;;;;;;19.51;46.46;102532.69;5072859;28;19956;-52
2023/04/19 07:27:48;;;;;;;;;;;;;;;19.82;45.69;102539.22;5073004;28;19939;-50
2023/04/19 07:30:13;;;;;;;;;;;;;;;19.79;44.75;102542.38;5072885;28;19916;-50
2023/04/19 07:32:38;;;;;;;;;;;;;;;20.06;43.88;102539.56;5072915;28;19928;-54
2023/04/19 07:35:04;;;;;;;;;;;;;;;19.81;45.95;102537.56;5072777;28;19927;-51
2023/04/19 07:37:30;;;;;;;;;;;;;;;20.07;43.76;102535.81;5073332;28;19978;-52
2023/04/19 07:39:55;;;;;;;;;;;;;;;19.82;43.31;102541.94;5074804;28;19976;-53
2023/04/19 07:42:20;;;;;;;;;;;;;;;19.95;42.48;102532.94;5076536;28;19921;-51
2023/04/19 07:44:45;;;;;;;;;;;;;;;19.80;42.32;102540.50;5077000;28;20287;-53
2023/04/19 07:47:11;;;;;;;;;;;;;;;19.88;43.84;102543.81;5076727;28;19917;-51
2023/04/19 07:49:37;;;;;;;;;;;;;;;19.63;43.98;102543.72;5076767;28;19928;-54
2023/04/19 07:52:06;;;;;;;;;;;;;;;19.90;43.90;102546.28;5076239;28;19972;-52
2023/04/19 07:54:31;;;;;;;;;;;;;;;19.57;44.50;102539.16;5076660;28;19924;-49
2023/04/19 07:56:57;;;;;;;;;;;;;;;20.01;41.97;102539.38;5076213;28;19999;-50
2023/04/19 07:59:23;;;;;;;;;;;;;;;20.17;41.31;102547.00;5076526;28;19913;-55
2023/04/19 08:01:49;;;;;;;;;;;;;;;19.84;41.32;102544.47;5076576;28;19940;-53
2023/04/19 08:04:15;;;;;;;;;;;;;;;19.99;41.40;102541.47;5076594;28;19986;-52
2023/04/19 08:06:41;;;;;;;;;;;;;;;20.14;42.82;102538.47;5076801;28;19916;-48
2023/04/19 08:09:06;;;;;;;;;;;;;;;19.99;41.83;102550.47;5076563;28;20050;-49
2023/04/19 08:11:32;;;;;;;;;;;;;;;19.56;41.23;102545.63;5076617;28;19939;-51
2023/04/19 08:13:57;;;;;;;;;;;;;;;19.70;41.17;102547.22;5076282;28;19928;-50
2023/04/19 08:16:22;;;;;;;;;;;;;;;20.00;40.78;102545.84;5076495;28;19952;-50
2023/04/19 08:18:50;;;;;;;;;;;;;;;20.30;39.84;102543.38;5076323;28;19917;-51
2023/04/19 08:21:15;;;;;;;;;;;;;;;20.09;41.27;102547.28;5076136;28;19928;-49
2023/04/19 08:23:41;;;;;;;;;;;;;;;20.16;39.39;102544.50;5076115;28;19917;-50
2023/04/19 08:26:06;;;;;;;;;;;;;;;20.14;40.33;102543.91;5076237;28;19921;-50
2023/04/19 08:28:31;;;;;;;;;;;;;;;19.89;40.74;102534.63;5075854;28;19979;-49
2023/04/19 08:30:58;;;;;;;;;;;;;;;19.96;41.92;102533.78;5075876;28;19921;-53
2023/04/19 08:33:23;;;;;;;;;;;;;;;20.02;41.17;102544.59;5075897;28;19929;-52
2023/04/19 08:35:48;;;;;;;;;;;;;;;20.39;38.89;102543.94;5076020;28;19943;-52
2023/04/19 08:38:14;;;;;;;;;;;;;;;20.36;40.23;102533.53;5076057;28;19909;-49
2023/04/19 08:40:50;;;;;;;;;;;;;;;20.22;39.21;102532.78;5075845;28;19940;-51
2023/04/19 08:43:17;;;;;;;;;;;;;;;20.52;39.28;102537.56;5075897;28;19951;-49
2023/04/19 08:45:45;;;;;;;;;;;;;;;20.47;38.46;102540.94;5075768;28;19916;-51
2023/04/19 08:48:11;;;;;;;;;;;;;;;20.62;38.73;102543.34;5075762;28;19928;-52
2023/04/19 08:50:37;;;;;;;;;;;;;;;20.52;39.58;102537.56;5075154;28;19976;-53
2023/04/19 08:53:03;;;;;;;;;;;;;;;20.47;39.61;102538.22;5075169;28;19955;-53
2023/04/19 08:55:29;;;;;;;;;;;;;;;20.66;39.41;102534.75;5075695;28;19920;-50
2023/04/19 08:57:55;;;;;;;;;;;;;;;20.84;39.54;102528.56;5074293;28;19928;-53
2023/04/19 09:00:20;;;;;;;;;;;;;;;20.87;39.03;102530.81;5074496;28;19920;-53
2023/04/19 09:02:46;;;;;;;;;;;;;;;21.22;38.06;102534.88;5073670;28;19920;-53
2023/04/19 09:05:13;;;;;;;;;;;;;;;21.00;39.04;102533.44;5074816;28;19927;-52
2023/04/19 09:07:38;;;;;;;;;;;;;;;21.73;38.69;102539.09;5074717;28;19924;-54
2023/04/19 09:10:06;;;;;;;;;;;;;;;21.82;37.03;102544.25;5075225;28;19916;-52
2023/04/19 09:12:31;;;;;;;;;;;;;;;22.55;36.98;102538.78;5074728;28;20296;-52
2023/04/19 09:14:57;;;;;;;;;;;;;;;23.17;35.10;102532.00;5073329;28;19935;-49
2023/04/19 09:17:22;;;;;;;;;;;;;;;23.03;35.19;102531.44;5075179;28;19916;-54
2023/04/19 09:19:48;;;;;;;;;;;;;;;23.36;36.16;102523.69;5075198;28;19928;-55
2023/04/19 09:22:13;;;;;;;;;;;;;;;23.29;34.75;102538.28;5073961;28;19924;-54
2023/04/19 09:24:39;;;;;;;;;;;;;;;23.19;34.31;102540.78;5074610;28;19921;-50
2023/04/19 09:27:05;;;;;;;;;;;;;;;24.15;33.69;102530.41;5074776;28;19917;-53
2023/04/19 09:29:30;;;;;;;;;;;;;;;24.06;32.21;102539.00;5074832;28;19917;-52
2023/04/19 09:31:57;;;;;;;;;;;;;;;24.55;31.74;102539.53;5070352;28;19917;-53
2023/04/19 09:34:22;;;;;;;;;;;;;;;25.16;31.54;102534.16;5074486;28;19917;-54
2023/04/19 09:36:48;;;;;;;;;;;;;;;25.71;31.22;102545.22;5073945;28;19928;-52
2023/04/19 09:39:14;;;;;;;;;;;;;;;26.88;30.94;102547.66;5074704;28;19956;-50
2023/04/19 09:41:49;;;;;;;;;;;;;;;27.14;29.90;102542.28;5074628;28;19939;-55
2023/04/19 09:44:16;;;;;;;;;;;;;;;26.80;30.85;102545.38;5073578;28;19921;-52
2023/04/19 09:46:42;;;;;;;;;;;;;;;27.40;29.45;102539.66;5073975;28;19920;-55
2023/04/19 09:49:18;;;;;;;;;;;;;;;26.69;29.46;102548.03;5074283;28;19943;-52
2023/04/19 09:51:45;;;;;;;;;;;;;;;27.30;28.40;102555.00;5073847;28;19928;-57
2023/04/19 09:54:11;;;;;;;;;;;;;;;27.40;28.67;102554.22;5073979;28;19920;-55
2023/04/19 09:56:36;;;;;;;;;;;;;;;27.52;28.99;102551.28;5073521;28;20095;-51
2023/04/19 09:59:02;;;;;;;;;;;;;;;27.41;28.52;102553.13;5072146;28;19938;-52
2023/04/19 10:01:28;;;;;;;;;;;;;;;27.39;28.18;102554.47;5073666;28;19928;-50
2023/04/19 10:03:54;;;;;;;;;;;;;;;27.81;28.25;102545.31;5073625;28;19924;-52
2023/04/19 10:06:19;;;;;;;;;;;;;;;28.07;28.78;102542.56;5073887;28;19917;-53
2023/04/19 10:08:46;;;;;;;;;;;;;;;28.30;27.64;102552.25;5074080;28;19921;-51
2023/04/19 10:11:12;;;;;;;;;;;;;;;28.54;26.74;102561.84;5074062;28;19924;-54
2023/04/19 10:13:37;;;;;;;;;;;;;;;28.64;27.10;102550.84;5073802;28;19940;-55
2023/04/19 10:16:03;;;;;;;;;;;;;;;28.84;27.99;102555.50;5073584;28;19917;-53
2023/04/19 10:18:29;;;;;;;;;;;;;;;29.65;26.49;102545.56;5073911;28;19959;-54
2023/04/19 10:20:57;;;;;;;;;;;;;;;29.06;26.95;102537.81;5073928;28;19921;-53
2023/04/19 10:23:23;;;;;;;;;;;;;;;29.71;25.75;102547.19;5073638;28;19917;-51
2023/04/19 10:25:54;;;;;;;;;;;;;;;29.51;26.29;102551.69;5073785;28;19925;-53
2023/04/19 10:28:19;;;;;;;;;;;;;;;30.30;25.05;102550.09;5073628;28;19977;-52
2023/04/19 10:30:57;;;;;;;;;;;;;;;30.13;25.19;102551.31;5073513;28;19921;-53
2023/04/19 10:33:24;;;;;;;;;;;;;;;31.16;24.42;102555.00;5072020;28;19917;-54
2023/04/19 10:35:49;;;;;;;;;;;;;;;31.55;25.17;102544.84;5073641;28;19916;-54
2023/04/19 10:38:15;;;;;;;;;;;;;;;31.02;24.75;102541.09;5073510;28;19943;-53
2023/04/19 10:40:49;;;;;;;;;;;;;;;30.77;24.40;102539.44;5073673;28;20018;-50
2023/04/19 10:43:16;;;;;;;;;;;;;;;31.78;24.79;102536.78;5071620;28;19920;-52
2023/04/19 10:45:42;;;;;;;;;;;;;;;32.42;23.66;102541.03;5072201;28;20055;-52
2023/04/19 10:48:29;;;;;;;;;;;;;;;31.74;23.79;102536.56;5072962;28;20007;-53
2023/04/19 10:50:58;;;;;;;;;;;;;;;31.09;24.58;102539.91;5072735;28;19917;-52
2023/04/19 10:53:42;;;;;;;;;;;;;;;31.69;23.10;102535.81;5058278;28;19932;-50
2023/04/19 10:56:07;;;;;;;;;;;;;;;32.75;23.07;102532.66;5053051;28;19948;-53
2023/04/19 10:58:53;;;;;;;;;;;;;;;32.69;23.10;102536.66;5053157;28;19917;-52
2023/04/19 11:01:32;;;;;;;;;;;;;;;33.29;23.05;102524.63;5052264;28;19917;-56
2023/04/19 11:03:57;;;;;;;;;;;;;;;33.01;22.81;102527.47;5053141;28;19909;-56
2023/04/19 11:06:26;;;;;;;;;;;;;;;32.23;23.18;102511.44;5052449;28;19948;-52
2023/04/19 11:08:51;;;;;;;;;;;;;;;32.53;22.83;102517.56;5052685;28;19917;-54
2023/04/19 11:11:17;;;;;;;;;;;;;;;32.22;23.33;102514.50;5052687;28;19928;-52
2023/04/19 11:13:42;;;;;;;;;;;;;;;32.45;23.73;102509.97;5053620;28;19929;-51
2023/04/19 11:16:08;;;;;;;;;;;;;;;33.66;21.55;102518.28;5059247;28;19929;-52
2023/04/19 11:18:33;;;;;;;;;;;;;;;33.66;21.14;102509.94;5042113;28;19917;-53
2023/04/19 11:21:00;;;;;;;;;;;;;;;34.44;20.64;102509.66;5057551;28;19928;-55
2023/04/19 11:23:25;;;;;;;;;;;;;;;34.54;19.90;102505.81;5059804;28;19916;-50
2023/04/19 11:25:51;;;;;;;;;;;;;;;34.67;20.62;102506.00;5059509;28;19917;-53
2023/04/19 11:28:18;;;;;;;;;;;;;;;34.75;20.19;102508.00;5059561;28;19917;-53
2023/04/19 11:30:43;;;;;;;;;;;;;;;34.79;19.77;102497.88;5059199;28;19923;-53
2023/04/19 11:33:11;;;;;;;;;;;;;;;34.63;19.66;102500.28;5059236;28;19928;-52
2023/04/19 11:35:36;;;;;;;;;;;;;;;35.10;19.66;102494.19;5059426;28;19921;-53
2023/04/19 11:38:03;;;;;;;;;;;;;;;35.24;20.29;102491.28;5059472;28;19917;-50
2023/04/19 11:40:30;;;;;;;;;;;;;;;34.17;20.35;102480.13;5059268;28;19917;-56
2023/04/19 11:42:59;;;;;;;;;;;;;;;34.58;19.91;102480.97;5059497;28;19989;-54
2023/04/19 11:45:26;;;;;;;;;;;;;;;34.64;20.56;102479.72;5042139;28;19918;-52
2023/04/19 11:47:52;;;;;;;;;;;;;;;35.08;19.16;102470.66;5058803;28;19963;-53
2023/04/19 11:50:32;;;;;;;;;;;;;;;35.72;19.46;102477.53;5058572;28;20225;-54
2023/04/19 11:52:57;;;;;;;;;;;;;;;36.67;19.48;102466.41;5068903;28;19920;-53
2023/04/19 11:55:23;;;;;;;;;;;;;;;35.90;19.55;102464.41;5079580;28;19940;-54
2023/04/19 11:57:49;;;;;;;;;;;;;;;35.15;19.02;102465.44;5079325;28;19916;-55
2023/04/19 12:00:15;;;;;;;;;;;;;;;35.60;19.04;102456.78;5079285;28;19925;-51
2023/04/19 12:02:45;;;;;;;;;;;;;;;35.74;18.67;102458.53;5079267;28;19924;-55
2023/04/19 12:05:11;;;;;;;;;;;;;;;36.05;18.77;102451.94;5079570;28;19916;-56
2023/04/19 12:07:56;;;;;;;;;;;;;;;36.23;17.70;102443.53;5079158;28;19948;-52
2023/04/19 12:10:21;;;;;;;;;;;;;;;36.06;18.25;102438.84;5079281;28;20083;-52
2023/04/19 12:12:47;;;;;;;;;;;;;;;36.50;18.06;102442.22;5079168;28;19989;-54
2023/04/19 12:15:12;;;;;;;;;;;;;;;36.55;17.51;102447.63;5078829;28;19928;-53
2023/04/19 12:17:54;;;;;;;;;;;;;;;36.08;17.86;102433.75;5079467;28;19984;-57
2023/04/19 12:20:37;;;;;;;;;;;;;;;37.51;17.74;102434.16;5079062;28;19959;-58
2023/04/19 12:23:03;;;;;;;;;;;;;;;37.57;16.83;102441.13;5079040;28;19916;-56
2023/04/19 12:25:32;;;;;;;;;;;;;;;37.43;16.25;102435.03;5077739;28;19947;-56
2023/04/19 12:27:58;;;;;;;;;;;;;;;36.73;17.32;102425.25;5075233;28;19917;-54
2023/04/19 12:30:25;;;;;;;;;;;;;;;36.80;17.28;102419.13;5075639;28;19917;-54
2023/04/19 12:32:51;;;;;;;;;;;;;;;37.11;18.18;102423.50;5075639;28;19916;-56
2023/04/19 12:35:17;;;;;;;;;;;;;;;38.15;16.79;102418.00;5075767;28;19928;-54